Time;durP1;ratioP1;P1;durP2;ratioP2;P2;SDS_P1;SDS_P2;PMS_P1;PMS_P2;Temp;Humidity;BMP_temperature;BMP_pressure;BME280_temperature;BME280_humidity;BME280_pressure;Samples;Min_cycle;Max_cycle;Signal;HPM_P1;HPM_P2
2023/06/27 00:02:07;;;;;;;4.90;3.50;;;;;;;19.59;60.26;99435.19;4366810;32;20109;-90
2023/06/27 00:04:33;;;;;;;7.85;3.50;;;;;;;19.61;60.25;99428.00;4354408;32;20134;-90
2023/06/27 00:06:58;;;;;;;7.05;3.53;;;;;;;19.61;60.25;99430.63;4366771;32;20154;-91
2023/06/27 00:09:24;;;;;;;6.15;3.60;;;;;;;19.55;60.26;99425.81;4404324;32;20147;-89
2023/06/27 00:11:49;;;;;;;8.35;4.07;;;;;;;19.26;60.24;99427.09;4366831;32;20120;-90
2023/06/27 00:14:14;;;;;;;10.98;5.30;;;;;;;19.25;60.24;99436.81;4366961;32;20090;-90
2023/06/27 00:16:40;;;;;;;5.60;3.60;;;;;;;19.25;60.24;99442.06;4354368;32;20106;-89
2023/06/27 00:19:05;;;;;;;6.28;3.30;;;;;;;19.40;60.25;99437.50;4366843;32;20141;-89
2023/06/27 00:21:31;;;;;;;5.18;3.47;;;;;;;19.22;60.25;99444.94;4366993;32;20170;-89
2023/06/27 00:23:57;;;;;;;7.30;4.12;;;;;;;19.13;60.23;99445.59;4367039;32;20098;-90
2023/06/27 00:26:22;;;;;;;6.37;3.50;;;;;;;19.16;60.23;99437.44;4404376;32;20116;-90
2023/06/27 00:28:48;;;;;;;6.55;4.07;;;;;;;19.20;60.24;99438.09;4366765;32;20134;-90
2023/06/27 00:31:13;;;;;;;7.93;3.90;;;;;;;19.28;60.24;99444.50;4367002;32;20466;-91
2023/06/27 00:33:39;;;;;;;7.70;3.78;;;;;;;19.51;60.25;99441.97;4358261;32;20167;-92
2023/06/27 00:36:05;;;;;;;7.22;4.32;;;;;;;19.42;60.25;99440.03;4354658;32;20141;-91
2023/06/27 00:38:31;;;;;;;5.62;3.90;;;;;;;19.56;60.26;99445.97;4355649;32;20102;-93
2023/06/27 00:40:57;;;;;;;5.32;3.60;;;;;;;19.45;60.24;99443.28;4356664;32;20888;-94
2023/06/27 00:43:25;;;;;;;6.82;3.47;;;;;;;19.56;60.25;99440.69;4370826;32;20120;-92
2023/06/27 00:45:50;;;;;;;6.22;3.95;;;;;;;19.30;60.23;99441.75;4369250;32;20098;-94
2023/06/27 00:48:16;;;;;;;6.22;3.42;;;;;;;19.26;60.24;99454.31;4362718;32;20129;-93
2023/06/27 00:50:45;;;;;;;5.05;3.47;;;;;;;19.27;60.24;99448.09;4354854;32;20336;-93
2023/06/27 00:53:10;;;;;;;8.65;4.25;;;;;;;19.18;60.23;99450.56;4355230;32;20094;-93
2023/06/27 00:55:37;;;;;;;6.60;4.05;;;;;;;19.47;60.26;99440.50;4354499;32;20137;-92
2023/06/27 00:58:03;;;;;;;7.32;3.60;;;;;;;19.41;60.25;99427.78;4354902;32;20133;-91
2023/06/27 01:00:30;;;;;;;5.93;3.67;;;;;;;19.07;60.22;99432.84;4354603;32;20117;-93
2023/06/27 01:02:55;;;;;;;10.38;3.87;;;;;;;18.74;60.21;99432.62;4354662;32;20458;-92
2023/06/27 01:05:21;;;;;;;6.68;3.80;;;;;;;18.75;60.21;99429.03;4354362;32;25010;-93
2023/06/27 01:07:51;;;;;;;8.13;3.37;;;;;;;18.91;60.21;99433.09;4356306;32;20132;-93
2023/06/27 01:10:42;;;;;;;5.37;3.65;;;;;;;19.13;60.23;99431.56;4356993;32;20080;-92
2023/06/27 01:13:10;;;;;;;5.22;3.58;;;;;;;19.09;60.23;99433.56;4385235;32;20109;-92
2023/06/27 01:15:36;;;;;;;5.97;3.50;;;;;;;18.85;60.22;99428.25;4393296;32;20111;-92
2023/06/27 01:18:02;;;;;;;6.78;3.92;;;;;;;18.70;60.21;99421.47;4356091;32;20098;-92
2023/06/27 01:20:27;;;;;;;5.40;3.97;;;;;;;18.79;60.21;99418.16;4356019;32;20152;-92
2023/06/27 01:23:16;;;;;;;8.98;3.95;;;;;;;18.91;60.21;99412.00;4368469;32;20097;-93
2023/06/27 01:25:42;;;;;;;5.40;3.45;;;;;;;18.96;60.22;99411.69;4357276;32;20166;-94
2023/06/27 01:28:07;;;;;;;6.57;3.97;;;;;;;19.04;60.22;99400.56;4356788;32;20104;-93
2023/06/27 01:30:35;;;;;;;4.97;3.50;;;;;;;18.96;60.22;99401.13;4356280;32;20098;-94
2023/06/27 01:33:05;;;;;;;7.45;3.85;;;;;;;18.85;60.22;99401.06;4357378;32;20098;-91
2023/06/27 01:35:32;;;;;;;;;;;;;;;18.72;60.21;99397.63;4369346;32;20110;-94
2023/06/27 01:38:02;;;;;;;5.57;3.37;;;;;;;18.90;60.21;99397.13;4394179;32;20005;-94
2023/06/27 01:40:28;;;;;;;5.90;3.85;;;;;;;18.83;60.21;99392.41;4357349;32;20094;-93
2023/06/27 01:42:59;;;;;;;8.05;3.25;;;;;;;19.00;60.22;99394.69;4356512;32;20086;-93
2023/06/27 01:45:25;;;;;;;6.93;4.10;;;;;;;18.73;60.21;99392.22;4357260;32;20479;-94
2023/06/27 01:47:50;;;;;;;5.10;3.65;;;;;;;18.71;60.21;99391.50;4368893;32;20110;-94
2023/06/27 01:50:15;;;;;;;5.85;3.90;;;;;;;18.89;60.22;99397.22;4356523;32;20098;-93
2023/06/27 01:52:41;;;;;;;7.43;3.60;;;;;;;19.41;60.24;99390.81;4356165;32;20439;-91
2023/06/27 01:55:07;;;;;;;6.85;3.70;;;;;;;19.15;60.23;99383.00;4367925;32;20154;-91
2023/06/27 01:57:33;;;;;;;6.87;3.65;;;;;;;18.98;60.22;99383.41;4362462;32;20115;-91
2023/06/27 01:59:58;;;;;;;6.57;3.87;;;;;;;18.91;60.21;99385.63;4374506;32;20131;-91
2023/06/27 02:02:23;;;;;;;5.93;3.67;;;;;;;18.77;60.21;99387.59;4355889;32;20112;-92
2023/06/27 02:04:49;;;;;;;6.07;3.47;;;;;;;18.94;60.22;99384.59;4394151;32;20130;-90
2023/06/27 02:07:15;;;;;;;5.47;3.30;;;;;;;18.95;60.22;99381.84;4356327;32;93099;-93
2023/06/27 02:09:40;;;;;;;5.28;3.75;;;;;;;18.88;60.22;99380.56;4370661;32;20142;-94
2023/06/27 02:12:06;;;;;;;6.85;3.45;;;;;;;19.05;60.22;99381.16;4363255;32;20158;-92
2023/06/27 02:14:32;;;;;;;9.15;4.30;;;;;;;18.72;60.21;99389.72;4376319;32;20137;-90
2023/06/27 02:16:57;;;;;;;9.60;3.97;;;;;;;18.98;60.22;99386.03;4367245;32;20110;-90
2023/06/27 02:19:22;;;;;;;6.80;4.15;;;;;;;19.05;60.22;99389.06;4367742;32;20090;-90
2023/06/27 02:21:49;;;;;;;7.72;4.05;;;;;;;18.88;60.21;99395.56;4355309;32;20150;-90
2023/06/27 02:24:14;;;;;;;5.47;3.17;;;;;;;18.65;60.20;99391.91;4355530;32;20456;-91
2023/06/27 02:26:39;;;;;;;7.05;3.15;;;;;;;18.76;60.20;99385.91;4392703;32;20102;-91
2023/06/27 02:29:05;;;;;;;6.55;3.55;;;;;;;18.69;60.21;99375.78;4355371;32;20093;-91
2023/06/27 02:31:30;;;;;;;7.22;3.45;;;;;;;18.57;60.20;99379.25;4367691;32;20122;-91
2023/06/27 02:33:56;;;;;;;5.37;3.35;;;;;;;18.63;60.21;99359.56;4367352;32;22978;-91
2023/06/27 02:36:22;;;;;;;7.00;3.97;;;;;;;18.60;60.19;99360.59;4367747;32;20168;-89
2023/06/27 02:38:47;;;;;;;5.43;3.42;;;;;;;18.52;60.20;99362.09;4380306;32;20086;-91
2023/06/27 02:41:13;;;;;;;7.90;3.65;;;;;;;18.51;60.20;99361.25;4355220;32;20120;-90
2023/06/27 02:43:39;;;;;;;9.60;3.67;;;;;;;18.65;60.20;99352.38;4367640;32;20424;-90
2023/06/27 02:46:05;;;;;;;5.37;3.58;;;;;;;18.64;60.21;99342.78;4355618;32;20118;-89
2023/06/27 02:48:30;;;;;;;5.80;3.75;;;;;;;18.61;60.21;99349.09;4393399;32;25922;-88
2023/06/27 02:50:56;;;;;;;10.00;4.60;;;;;;;18.77;60.21;99348.03;4393954;32;20419;-87
2023/06/27 02:53:22;;;;;;;8.18;3.50;;;;;;;18.72;60.21;99350.16;4392532;32;20110;-89
2023/06/27 02:55:47;;;;;;;6.37;3.85;;;;;;;18.81;60.21;99345.06;4367678;32;20364;-90
2023/06/27 02:58:13;;;;;;;5.82;3.78;;;;;;;18.84;60.21;99351.91;4367647;32;20221;-87
2023/06/27 03:00:38;;;;;;;5.45;3.30;;;;;;;19.15;60.23;99356.62;4404816;32;20710;-88
2023/06/27 03:03:04;;;;;;;4.80;3.40;;;;;;;19.00;60.22;99365.66;4380160;32;20532;-88
2023/06/27 03:05:29;;;;;;;6.40;3.50;;;;;;;19.03;60.22;99368.09;4367427;32;20169;-89
2023/06/27 03:07:55;;;;;;;5.70;3.70;;;;;;;18.99;60.21;99379.81;4354812;32;20151;-89
2023/06/27 03:10:20;;;;;;;9.63;3.85;;;;;;;18.88;60.21;99377.94;4392378;32;20136;-88
2023/06/27 03:12:45;;;;;;;7.53;3.30;;;;;;;18.95;60.22;99373.06;4367620;32;20125;-88
2023/06/27 03:15:11;;;;;;;7.47;3.83;;;;;;;18.92;60.22;99371.47;4367072;32;21003;-89
2023/06/27 03:17:36;;;;;;;8.85;3.90;;;;;;;19.23;60.24;99364.81;4379889;32;20093;-89
2023/06/27 03:20:03;;;;;;;6.53;3.60;;;;;;;19.12;60.22;99364.75;4380060;32;20086;-89
2023/06/27 03:22:28;;;;;;;7.18;3.75;;;;;;;18.82;60.21;99369.63;4368006;32;20572;-88
2023/06/27 03:24:54;;;;;;;7.50;3.30;;;;;;;18.96;60.22;99361.56;4379863;32;20110;-89
2023/06/27 03:27:23;;;;;;;6.60;3.58;;;;;;;19.00;60.21;99366.50;4367381;32;20177;-89
2023/06/27 03:29:49;;;;;;;5.40;3.60;;;;;;;18.95;60.22;99363.38;4380749;32;20112;-89
2023/06/27 03:32:15;;;;;;;4.50;3.58;;;;;;;19.02;60.22;99359.31;4380193;32;20364;-89
2023/06/27 03:34:41;;;;;;;5.22;3.30;;;;;;;19.18;60.23;99359.06;4367932;32;20111;-90
2023/06/27 03:37:07;;;;;;;6.10;3.65;;;;;;;19.32;60.24;99361.50;4369173;32;20913;-88
2023/06/27 03:39:32;;;;;;;6.57;4.05;;;;;;;19.42;60.24;99360.84;4371682;32;20113;-89
2023/06/27 03:41:58;;;;;;;5.57;3.50;;;;;;;19.67;60.26;99351.94;4389824;32;20158;-89
2023/06/27 03:44:23;;;;;;;5.72;4.03;;;;;;;19.66;60.25;99351.09;4367857;32;20152;-89
2023/06/27 03:46:48;;;;;;;5.80;3.40;;;;;;;19.56;60.25;99340.38;4404514;32;20136;-90
2023/06/27 03:49:14;;;;;;;4.85;3.30;;;;;;;19.91;60.27;99335.06;4367338;32;20189;-89
2023/06/27 03:51:40;;;;;;;8.63;4.07;;;;;;;19.67;60.25;99336.09;4367357;32;20171;-91
2023/06/27 03:54:06;;;;;;;5.25;3.10;;;;;;;19.84;60.26;99348.84;4355036;32;20095;-92
2023/06/27 03:56:32;;;;;;;5.32;3.70;;;;;;;20.09;60.28;99342.50;4367778;32;20112;-92
2023/06/27 03:58:57;;;;;;;6.45;3.33;;;;;;;19.91;60.27;99343.00;4355193;32;20423;-92
2023/06/27 04:01:23;;;;;;;5.65;3.45;;;;;;;20.00;60.27;99340.59;4354342;32;20377;-93
2023/06/27 04:03:48;;;;;;;8.05;3.90;;;;;;;20.16;60.28;99341.94;4367736;32;20103;-93
2023/06/27 04:06:14;;;;;;;5.45;3.20;;;;;;;20.27;60.29;99346.34;4355247;32;20094;-90
2023/06/27 04:08:39;;;;;;;6.55;4.20;;;;;;;20.40;60.30;99341.84;4392525;32;20147;-92
2023/06/27 04:11:05;;;;;;;6.75;3.72;;;;;;;20.37;60.29;99342.06;4354526;32;20136;-90
2023/06/27 04:13:30;;;;;;;5.93;3.58;;;;;;;20.61;60.30;99341.09;4404819;32;20101;-93
2023/06/27 04:15:56;;;;;;;7.53;3.30;;;;;;;20.46;60.29;99341.34;4367259;32;20086;-92
2023/06/27 04:18:21;;;;;;;5.55;3.75;;;;;;;20.60;60.30;99342.06;4354191;32;20141;-90
2023/06/27 04:20:46;;;;;;;6.75;3.87;;;;;;;20.70;60.30;99353.56;4354271;32;20118;-90
2023/06/27 04:23:13;;;;;;;5.75;3.33;;;;;;;20.89;60.32;99358.22;4366856;32;20110;-90
2023/06/27 04:25:39;;;;;;;7.12;3.78;;;;;;;20.88;60.32;99365.34;4367183;32;20087;-90
2023/06/27 04:28:04;;;;;;;7.47;3.45;;;;;;;20.83;60.31;99360.41;4366888;32;20116;-91
2023/06/27 04:30:29;;;;;;;6.75;3.60;;;;;;;20.82;60.31;99364.03;4379207;32;20134;-90
2023/06/27 04:32:55;;;;;;;6.93;3.42;;;;;;;21.07;60.33;99354.09;4366557;32;20144;-91
2023/06/27 04:35:20;;;;;;;5.60;3.85;;;;;;;20.98;60.32;99349.53;4366446;32;20479;-89
2023/06/27 04:37:46;;;;;;;7.32;3.58;;;;;;;21.17;60.33;99357.66;4392971;32;20086;-90
2023/06/27 04:40:12;;;;;;;7.37;4.75;;;;;;;21.00;60.32;99356.38;4367467;32;20122;-90
2023/06/27 04:42:37;;;;;;;5.53;3.12;;;;;;;21.26;60.34;99351.63;4377656;32;20111;-90
2023/06/27 04:45:03;;;;;;;5.95;3.70;;;;;;;21.35;60.34;99377.38;4368639;32;20094;-90
2023/06/27 04:47:29;;;;;;;6.28;3.87;;;;;;;21.40;60.34;99379.62;4356809;32;20414;-89
2023/06/27 04:49:54;;;;;;;7.05;4.05;;;;;;;21.38;60.34;99373.63;4356001;32;20106;-92
2023/06/27 04:52:20;;;;;;;13.35;4.65;;;;;;;21.38;60.34;99382.41;4356393;32;20137;-93
2023/06/27 04:54:51;;;;;;;11.75;4.43;;;;;;;21.30;60.34;99365.50;4356991;32;20490;-93
2023/06/27 04:57:17;;;;;;;9.10;4.37;;;;;;;21.38;60.34;99365.69;4357981;32;20177;-93
2023/06/27 04:59:42;;;;;;;13.77;4.35;;;;;;;21.43;60.35;99368.78;4356793;32;20114;-93
2023/06/27 05:02:08;;;;;;;9.35;4.28;;;;;;;21.48;60.35;99361.28;4357075;32;20110;-93
2023/06/27 05:04:34;;;;;;;9.30;4.65;;;;;;;21.65;60.36;99359.91;4358038;32;20094;-94
2023/06/27 05:06:59;;;;;;;8.52;5.03;;;;;;;21.48;60.35;99342.75;4361153;32;20787;-92
2023/06/27 05:09:28;;;;;;;10.07;5.35;;;;;;;21.66;60.36;99332.44;4368114;32;20102;-94
2023/06/27 05:11:54;;;;;;;8.27;5.43;;;;;;;21.80;60.37;99339.22;4358771;32;20727;-93
2023/06/27 05:14:19;;;;;;;7.20;4.55;;;;;;;21.86;60.36;99344.00;4368818;32;20171;-94
2023/06/27 05:16:44;;;;;;;9.00;5.00;;;;;;;22.00;60.37;99341.00;4368828;32;20094;-93
2023/06/27 05:19:10;;;;;;;7.37;4.78;;;;;;;22.13;60.38;99344.31;4356212;32;20102;-93
2023/06/27 05:21:36;;;;;;;9.00;5.03;;;;;;;22.28;60.40;99350.12;4356334;32;20145;-93
2023/06/27 05:24:04;;;;;;;8.48;5.53;;;;;;;22.34;60.40;99357.53;4368493;32;20090;-93
2023/06/27 05:26:30;;;;;;;7.80;5.12;;;;;;;22.53;60.40;99362.06;4357941;32;20169;-95
2023/06/27 05:28:57;;;;;;;8.50;5.87;;;;;;;22.65;60.41;99355.69;4357181;32;20166;-94
2023/06/27 05:31:23;;;;;;;8.90;5.90;;;;;;;22.83;60.42;99348.78;4357217;32;20126;-94
2023/06/27 05:33:48;;;;;;;9.63;5.70;;;;;;;22.89;60.42;99358.00;4356723;32;20114;-95
2023/06/27 05:36:14;;;;;;;9.10;6.12;;;;;;;22.84;60.42;99347.81;4356524;32;20733;-94
2023/06/27 05:38:39;;;;;;;7.72;5.18;;;;;;;22.79;60.42;99339.38;4357078;32;20158;-94
2023/06/27 05:41:07;;;;;;;10.02;5.78;;;;;;;22.73;60.42;99342.59;4356753;32;20106;-94
2023/06/27 05:43:33;;;;;;;9.82;6.20;;;;;;;22.86;60.42;99348.50;4357107;32;20125;-94
2023/06/27 05:45:58;;;;;;;12.77;5.43;;;;;;;22.89;60.42;99361.50;4368168;32;20427;-94
2023/06/27 05:48:23;;;;;;;8.73;6.35;;;;;;;22.93;60.43;99359.41;4367798;32;20173;-94
2023/06/27 05:50:52;;;;;;;10.38;6.43;;;;;;;22.90;60.43;99362.34;4357094;32;20221;-94
2023/06/27 05:53:17;;;;;;;11.18;6.45;;;;;;;23.05;60.43;99365.44;4357272;32;20495;-92
2023/06/27 05:55:42;;;;;;;10.38;7.25;;;;;;;23.02;60.42;99360.41;4356129;32;20105;-93
2023/06/27 05:58:08;;;;;;;10.32;6.37;;;;;;;23.11;60.43;99363.06;4368383;32;20098;-93
2023/06/27 06:00:33;;;;;;;11.27;6.87;;;;;;;22.98;60.43;99356.34;4368386;32;20129;-93
2023/06/27 06:02:59;;;;;;;9.70;6.53;;;;;;;23.07;60.43;99351.06;4356142;32;20165;-92
2023/06/27 06:05:24;;;;;;;9.88;6.53;;;;;;;23.13;60.43;99355.81;4367881;32;20159;-92
2023/06/27 06:07:50;;;;;;;9.65;7.03;;;;;;;23.31;60.44;99349.81;4355944;32;20132;-94
2023/06/27 06:10:15;;;;;;;12.32;7.40;;;;;;;23.49;60.45;99350.78;4356172;32;20166;-91
2023/06/27 06:12:43;;;;;;;9.50;6.82;;;;;;;23.69;60.46;99344.50;4355984;32;20108;-92
2023/06/27 06:15:17;;;;;;;12.40;7.18;;;;;;;23.87;60.46;99337.47;4356839;32;20094;-93
2023/06/27 06:17:43;;;;;;;11.80;7.87;;;;;;;24.03;60.47;99339.53;4370350;32;20106;-92
2023/06/27 06:20:09;;;;;;;10.35;6.57;;;;;;;23.99;60.47;99345.28;4368549;32;20164;-92
2023/06/27 06:22:36;;;;;;;11.52;7.07;;;;;;;24.12;60.48;99340.47;4356385;32;20094;-94
2023/06/27 06:25:02;;;;;;;15.90;7.80;;;;;;;24.09;60.48;99343.41;4368584;32;20086;-91
2023/06/27 06:27:28;;;;;;;10.18;7.12;;;;;;;24.09;60.47;99349.56;4356233;32;20083;-92
2023/06/27 06:29:53;;;;;;;10.95;7.50;;;;;;;24.32;60.49;99343.94;4368436;32;20153;-94
2023/06/27 06:32:19;;;;;;;9.32;6.50;;;;;;;24.39;60.50;99350.38;4357562;32;20107;-91
2023/06/27 06:34:44;;;;;;;14.43;7.53;;;;;;;24.38;60.50;99352.19;4360893;32;20106;-91
2023/06/27 06:37:10;;;;;;;8.43;6.57;;;;;;;24.35;60.49;99351.63;4361784;32;20114;-91
2023/06/27 06:39:35;;;;;;;9.30;6.97;;;;;;;24.32;60.49;99359.88;4394390;32;20613;-90
2023/06/27 06:42:01;;;;;;;12.13;7.12;;;;;;;24.38;60.50;99357.50;4405324;32;20094;-91
2023/06/27 06:44:26;;;;;;;10.00;7.00;;;;;;;24.32;60.49;99365.22;4355205;32;20138;-88
2023/06/27 06:46:52;;;;;;;10.40;6.87;;;;;;;24.24;60.49;99371.22;4367606;32;20169;-92
2023/06/27 06:49:18;;;;;;;9.18;7.12;;;;;;;24.26;60.49;99371.09;4355093;32;20463;-89
2023/06/27 06:51:43;;;;;;;13.18;6.75;;;;;;;24.20;60.48;99380.50;4367733;32;20112;-91
2023/06/27 06:54:08;;;;;;;12.02;7.32;;;;;;;24.05;60.47;99381.91;4354873;32;20695;-92
2023/06/27 06:56:34;;;;;;;9.95;6.80;;;;;;;23.94;60.47;99395.41;4367572;32;20372;-91
2023/06/27 06:59:03;;;;;;;8.27;6.57;;;;;;;23.73;60.46;99411.50;4367863;32;20201;-90
2023/06/27 07:01:28;;;;;;;9.55;6.45;;;;;;;23.69;60.46;99412.78;4355940;32;20151;-90
2023/06/27 07:03:54;;;;;;;9.02;6.50;;;;;;;23.71;60.45;99416.97;4367093;32;20455;-91
2023/06/27 07:06:20;;;;;;;13.32;6.85;;;;;;;23.77;60.47;99402.25;4367699;32;20141;-90
2023/06/27 07:08:45;;;;;;;12.75;7.07;;;;;;;23.88;60.47;99408.25;4355181;32;20445;-92
2023/06/27 07:11:11;;;;;;;10.73;6.68;;;;;;;23.93;60.47;99409.66;4405306;32;20137;-90
2023/06/27 07:13:36;;;;;;;8.32;6.72;;;;;;;23.74;60.46;99399.87;4367496;32;20169;-91
2023/06/27 07:16:01;;;;;;;9.90;7.25;;;;;;;23.66;60.45;99402.41;4354218;32;20148;-92
2023/06/27 07:18:27;;;;;;;11.00;7.00;;;;;;;23.76;60.47;99403.25;4354854;32;20165;-90
2023/06/27 07:20:52;;;;;;;11.55;6.60;;;;;;;23.60;60.45;99405.63;4375434;32;20124;-92
2023/06/27 07:23:18;;;;;;;11.43;7.10;;;;;;;23.84;60.47;99403.38;4404651;32;20124;-90
2023/06/27 07:25:43;;;;;;;11.85;6.72;;;;;;;24.04;60.47;99407.69;4367220;32;20118;-92
2023/06/27 07:28:09;;;;;;;8.32;6.28;;;;;;;24.23;60.49;99404.13;4367600;32;20106;-92
2023/06/27 07:30:35;;;;;;;12.70;6.68;;;;;;;24.15;60.49;99404.88;4367380;32;20094;-93
2023/06/27 07:33:00;;;;;;;9.65;6.68;;;;;;;24.23;60.48;99400.63;4367484;32;20157;-92
2023/06/27 07:35:28;;;;;;;10.13;7.00;;;;;;;24.31;60.49;99401.63;4354760;32;20136;-90
2023/06/27 07:37:54;;;;;;;10.20;6.28;;;;;;;24.53;60.51;99397.75;4367704;32;20471;-90
2023/06/27 07:40:19;;;;;;;11.85;6.97;;;;;;;24.52;60.49;99396.06;4379493;32;20181;-91
2023/06/27 07:42:45;;;;;;;9.50;6.47;;;;;;;24.83;60.51;99393.13;4379997;32;20101;-90
2023/06/27 07:45:10;;;;;;;15.90;7.00;;;;;;;24.78;60.52;99405.06;4367142;32;20114;-91
2023/06/27 07:47:36;;;;;;;11.38;6.85;;;;;;;24.89;60.51;99401.38;4354729;32;20114;-90
2023/06/27 07:50:01;;;;;;;10.90;6.78;;;;;;;24.88;60.52;99412.19;4354713;32;20090;-91
2023/06/27 07:52:27;;;;;;;18.37;6.22;;;;;;;25.07;60.53;99410.25;4354731;32;20125;-93
2023/06/27 07:54:53;;;;;;;9.38;6.30;;;;;;;25.21;60.53;99406.25;4355334;32;20190;-90
2023/06/27 07:57:18;;;;;;;10.63;6.40;;;;;;;25.26;60.54;99406.63;4365646;32;20114;-89
2023/06/27 07:59:44;;;;;;;11.02;6.40;;;;;;;25.34;60.54;99414.72;4395097;32;20126;-90
2023/06/27 08:02:09;;;;;;;11.07;6.18;;;;;;;25.25;60.54;99420.09;4383080;32;20154;-91
2023/06/27 08:04:35;;;;;;;11.23;6.30;;;;;;;25.39;60.55;99420.44;4361335;32;20149;-91
2023/06/27 08:07:00;;;;;;;10.88;5.95;;;;;;;25.23;60.54;99424.75;4367838;32;20125;-93
2023/06/27 08:09:26;;;;;;;7.87;6.25;;;;;;;25.20;60.54;99425.03;4354604;32;20132;-92
2023/06/27 08:11:51;;;;;;;7.62;5.75;;;;;;;25.10;60.53;99417.13;4367292;32;20119;-93
2023/06/27 08:14:17;;;;;;;8.27;5.80;;;;;;;24.87;60.52;99431.81;4354275;32;20125;-92
2023/06/27 08:16:43;;;;;;;10.13;6.72;;;;;;;24.84;60.52;99426.75;4392817;32;20102;-91
2023/06/27 08:19:08;;;;;;;13.20;6.87;;;;;;;24.94;60.52;99439.03;4354499;32;20103;-91
2023/06/27 08:21:34;;;;;;;8.80;6.32;;;;;;;25.04;60.53;99437.19;4366918;32;20418;-90
2023/06/27 08:23:59;;;;;;;8.60;6.35;;;;;;;24.96;60.52;99444.22;4354502;32;20106;-89
2023/06/27 08:26:25;;;;;;;11.55;5.70;;;;;;;24.95;60.53;99442.53;4366700;32;20129;-90
2023/06/27 08:28:50;;;;;;;9.68;6.62;;;;;;;25.21;60.53;99437.37;4391544;32;20106;-91
2023/06/27 08:31:16;;;;;;;13.68;6.53;;;;;;;25.14;60.54;99439.81;4354136;32;20121;-91
2023/06/27 08:33:42;;;;;;;11.63;6.60;;;;;;;25.08;60.53;99427.09;4366624;32;20399;-90
2023/06/27 08:36:08;;;;;;;11.43;7.68;;;;;;;25.16;60.54;99429.84;4366396;32;20107;-90
2023/06/27 08:38:34;;;;;;;10.70;7.47;;;;;;;24.97;60.52;99430.75;4366783;32;20097;-90
2023/06/27 08:41:00;;;;;;;9.10;6.60;;;;;;;24.99;60.53;99428.81;4366758;32;20121;-89
2023/06/27 08:43:26;;;;;;;9.98;6.78;;;;;;;24.99;60.53;99434.12;4378516;32;20128;-88
2023/06/27 08:45:54;;;;;;;12.88;7.28;;;;;;;24.94;60.53;99444.37;4366389;32;20154;-89
2023/06/27 08:48:19;;;;;;;9.23;6.57;;;;;;;24.90;60.52;99437.66;4378901;32;20128;-88
2023/06/27 08:50:45;;;;;;;10.05;6.85;;;;;;;24.90;60.52;99435.00;4353761;32;20110;-89
2023/06/27 08:53:13;;;;;;;9.32;7.00;;;;;;;25.02;60.53;99441.81;4366228;32;20181;-89
2023/06/27 08:55:38;;;;;;;13.30;7.68;;;;;;;25.08;60.53;99435.91;4366944;32;20098;-90
2023/06/27 08:58:08;;;;;;;10.13;6.25;;;;;;;25.12;60.53;99435.63;4390794;32;20121;-89
2023/06/27 09:00:34;;;;;;;10.27;6.85;;;;;;;25.16;60.54;99439.66;4375806;32;20102;-89
2023/06/27 09:02:59;;;;;;;13.57;7.57;;;;;;;25.35;60.55;99435.03;4366082;32;20133;-91
2023/06/27 09:05:24;;;;;;;12.32;7.62;;;;;;;25.58;60.56;99442.59;4353646;32;20109;-90
2023/06/27 09:07:50;;;;;;;13.02;7.07;;;;;;;25.59;60.56;99444.28;4365999;32;20158;-90
2023/06/27 09:10:15;;;;;;;10.23;6.60;;;;;;;25.80;60.57;99447.50;4366243;32;20133;-90
2023/06/27 09:12:44;;;;;;;9.88;6.75;;;;;;;25.79;60.57;99456.50;4366175;32;20128;-91
2023/06/27 09:15:10;;;;;;;10.50;6.87;;;;;;;25.80;60.57;99449.31;4378485;32;20157;-89
2023/06/27 09:17:36;;;;;;;11.88;6.78;;;;;;;26.18;60.59;99451.63;4366535;32;20094;-88
2023/06/27 09:20:02;;;;;;;16.90;6.57;;;;;;;26.37;60.60;99463.94;4366204;32;20087;-90
2023/06/27 09:22:27;;;;;;;9.48;7.30;;;;;;;26.43;60.60;99474.00;4366504;32;20106;-89
2023/06/27 09:25:12;;;;;;;8.80;6.80;;;;;;;26.41;60.59;99467.97;4367154;32;20106;-91
2023/06/27 09:27:38;;;;;;;8.35;6.65;;;;;;;26.19;60.59;99471.12;4370211;32;20121;-89
2023/06/27 09:30:05;;;;;;;10.40;6.78;;;;;;;26.00;60.58;99466.81;4373765;32;20143;-91
2023/06/27 09:32:30;;;;;;;9.55;6.50;;;;;;;26.07;60.58;99477.72;4360909;32;20423;-89
2023/06/27 09:34:56;;;;;;;8.25;6.25;;;;;;;26.10;60.59;99474.75;4367848;32;28198;-90
2023/06/27 09:37:32;;;;;;;7.05;6.10;;;;;;;26.35;60.60;99468.63;4355923;32;20466;-91
2023/06/27 09:39:57;;;;;;;10.93;6.18;;;;;;;26.16;60.58;99461.59;4367878;32;20120;-91
2023/06/27 09:42:23;;;;;;;8.35;6.57;;;;;;;26.40;60.59;99462.81;4380634;32;20682;-91
2023/06/27 09:44:49;;;;;;;9.52;6.82;;;;;;;26.44;60.60;99464.16;4368209;32;20153;-90
2023/06/27 09:47:14;;;;;;;8.77;6.20;;;;;;;26.56;60.60;99454.91;4355746;32;20086;-91
2023/06/27 09:49:42;;;;;;;13.48;6.60;;;;;;;26.58;60.61;99461.75;4368291;32;20134;-92
2023/06/27 09:52:11;;;;;;;10.57;5.65;;;;;;;26.90;60.63;99470.91;4356422;32;20177;-91
2023/06/27 09:54:46;;;;;;;12.05;6.15;;;;;;;27.37;60.65;99471.28;4356510;32;20094;-91
2023/06/27 09:57:16;;;;;;;11.95;6.43;;;;;;;27.19;60.64;99467.87;4405799;32;20520;-90
2023/06/27 09:59:42;;;;;;;12.20;6.32;;;;;;;27.36;60.65;99474.97;4356235;32;20117;-89
2023/06/27 10:02:14;;;;;;;7.35;5.82;;;;;;;27.26;60.64;99468.94;4355679;32;20157;-90
2023/06/27 10:04:39;;;;;;;8.02;4.93;;;;;;;27.53;60.66;99473.16;4355847;32;20425;-92
2023/06/27 10:07:05;;;;;;;10.85;6.35;;;;;;;27.42;60.64;99474.28;4355796;32;20123;-93
2023/06/27 10:09:30;;;;;;;8.80;6.18;;;;;;;27.62;60.66;99472.19;4355863;32;20168;-93
2023/06/27 10:11:55;;;;;;;8.32;5.62;;;;;;;27.92;60.68;99465.41;4368154;32;20136;-94
2023/06/27 10:14:21;;;;;;;10.25;5.82;;;;;;;28.22;60.69;99468.37;4368303;32;20114;-92
2023/06/27 10:16:46;;;;;;;6.40;5.40;;;;;;;28.36;60.70;99465.88;4355865;32;20114;-92
2023/06/27 10:19:12;;;;;;;8.70;5.80;;;;;;;28.66;60.71;99464.31;4356250;32;20126;-94
2023/06/27 10:21:37;;;;;;;9.38;5.53;;;;;;;28.57;60.70;99465.31;4369401;32;20107;-92
2023/06/27 10:24:04;;;;;;;8.95;5.55;;;;;;;28.63;60.71;99470.03;4356734;32;20136;-93
2023/06/27 10:26:30;;;;;;;5.93;5.22;;;;;;;28.39;60.70;99473.59;4369799;32;20085;-95
2023/06/27 10:28:56;;;;;;;8.23;5.47;;;;;;;28.16;60.69;99461.88;4356553;32;20456;-93
2023/06/27 10:31:39;;;;;;;8.52;5.28;;;;;;;27.92;60.68;99461.84;4369249;32;20114;-94
2023/06/27 10:34:05;;;;;;;11.12;5.12;;;;;;;27.86;60.68;99463.38;4357137;32;20557;-96
2023/06/27 10:37:10;;;;;;;6.43;4.70;;;;;;;27.90;60.67;99475.41;4356980;32;20110;-95
2023/06/27 10:39:40;;;;;;;7.35;4.80;;;;;;;27.77;60.67;99491.13;4365635;32;20095;-94
2023/06/27 10:42:06;;;;;;;6.78;4.47;;;;;;;27.42;60.65;99497.53;4366600;32;20122;-94
2023/06/27 10:44:35;;;;;;;9.15;5.07;;;;;;;27.12;60.64;99505.09;4374423;32;20134;-94
2023/06/27 10:47:16;;;;;;;5.50;4.07;;;;;;;27.04;60.64;99514.94;4369458;32;20137;-94
2023/06/27 10:49:45;;;;;;;10.15;4.60;;;;;;;26.99;60.63;99519.91;4394185;32;20173;-94
2023/06/27 10:52:11;;;;;;;7.57;4.40;;;;;;;26.77;60.62;99522.09;4358145;32;20114;-95
2023/06/27 10:54:40;;;;;;;7.45;4.80;;;;;;;26.77;60.62;99523.94;4358569;32;20132;-92
2023/06/27 10:57:06;;;;;;;6.03;4.40;;;;;;;26.74;60.62;99526.94;4361490;32;20218;-93
2023/06/27 10:59:33;;;;;;;5.93;3.42;;;;;;;26.43;60.61;99524.72;4379488;32;20117;-94
2023/06/27 11:02:00;;;;;;;4.82;3.78;;;;;;;26.48;60.62;99522.41;4358356;32;20510;-94
2023/06/27 11:04:39;;;;;;;6.45;4.07;;;;;;;26.39;60.60;99526.00;4357310;32;20149;-94
2023/06/27 11:07:05;;;;;;;5.53;3.67;;;;;;;26.12;60.59;99532.28;4360007;32;20512;-93
2023/06/27 11:09:31;;;;;;;5.45;4.20;;;;;;;25.99;60.58;99531.81;4369158;32;20106;-94
2023/06/27 11:12:11;;;;;;;4.70;3.80;;;;;;;25.96;60.58;99532.97;4368878;32;20482;-95
2023/06/27 11:14:43;;;;;;;;;;;;;;;25.86;60.58;99542.88;4357770;32;20177;-93
2023/06/27 11:17:09;;;;;;;5.78;4.05;;;;;;;25.92;60.57;99550.25;4393982;32;19974;-93
2023/06/27 11:19:35;;;;;;;6.25;4.07;;;;;;;25.67;60.57;99559.84;4368899;32;20112;-95
2023/06/27 11:22:01;;;;;;;5.75;4.00;;;;;;;25.82;60.57;99559.34;4356352;32;20090;-96
2023/06/27 11:24:26;;;;;;;7.45;4.53;;;;;;;25.73;60.57;99558.37;4356905;32;20128;-96
2023/06/27 11:26:53;;;;;;;6.22;3.97;;;;;;;25.67;60.56;99556.34;4357012;32;20089;-94
2023/06/27 11:29:20;;;;;;;6.05;4.70;;;;;;;25.66;60.57;99582.13;4356845;32;20081;-94